Time;durP1;ratioP1;P1;durP2;ratioP2;P2;SDS_P1;SDS_P2;PMS_P1;PMS_P2;Temp;Humidity;BMP_temperature;BMP_pressure;BME280_temperature;BME280_humidity;BME280_pressure;Samples;Min_cycle;Max_cycle;Signal;HPM_P1;HPM_P2
2023/05/08 00:01:07;;;;;;;9.18;5.68;;;;;;;;;;5027694;28;20503;-70
2023/05/08 00:03:32;;;;;;;8.63;5.53;;;;;;;;;;5031671;28;20021;-70
2023/05/08 00:05:57;;;;;;;8.95;5.57;;;;;;;;;;5025874;28;20104;-70
2023/05/08 00:08:22;;;;;;;7.37;5.13;;;;;;;;;;5031522;28;20037;-70
2023/05/08 00:10:47;;;;;;;11.67;5.43;;;;;;;;;;5028323;28;20248;-70
2023/05/08 00:13:13;;;;;;;11.55;5.82;;;;;;;;;;5031046;28;20300;-70
2023/05/08 00:15:38;;;;;;;8.63;5.60;;;;;;;;;;5026733;28;20541;-71
2023/05/08 00:18:04;;;;;;;9.13;5.30;;;;;;;;;;5030500;28;20071;-70
2023/05/08 00:20:29;;;;;;;6.40;4.32;;;;;;;;;;5025048;28;20021;-70
2023/05/08 00:22:56;;;;;;;8.43;5.43;;;;;;;;;;5024047;28;20020;-70
2023/05/08 00:25:21;;;;;;;11.85;5.13;;;;;;;;;;5031989;28;20318;-70
2023/05/08 00:27:46;;;;;;;10.18;6.10;;;;;;;;;;5028088;28;20057;-70
2023/05/08 00:30:12;;;;;;;7.87;5.43;;;;;;;;;;5031856;28;20049;-70
2023/05/08 00:32:37;;;;;;;10.20;5.53;;;;;;;;;;5028923;28;20307;-70
2023/05/08 00:35:02;;;;;;;9.27;5.13;;;;;;;;;;5033609;28;20029;-70
2023/05/08 00:37:27;;;;;;;7.90;5.22;;;;;;;;;;5032571;28;20357;-70
2023/05/08 00:39:53;;;;;;;10.17;5.70;;;;;;;;;;5030519;28;20113;-71
2023/05/08 00:42:18;;;;;;;8.93;5.50;;;;;;;;;;5030699;28;20275;-70
2023/05/08 00:44:44;;;;;;;8.85;5.32;;;;;;;;;;5032222;28;20276;-71
2023/05/08 00:47:09;;;;;;;8.98;5.22;;;;;;;;;;5034974;28;20061;-70
2023/05/08 00:49:35;;;;;;;11.88;5.38;;;;;;;;;;5032204;28;20057;-70
2023/05/08 00:52:01;;;;;;;6.85;5.15;;;;;;;;;;5035339;28;20087;-70
2023/05/08 00:54:26;;;;;;;7.30;4.63;;;;;;;;;;5032634;28;20025;-70
2023/05/08 00:56:52;;;;;;;9.30;4.97;;;;;;;;;;5034056;28;20018;-70
2023/05/08 00:59:19;;;;;;;10.82;4.80;;;;;;;;;;5031064;28;20036;-70
2023/05/08 01:01:46;;;;;;;8.55;5.47;;;;;;;;;;5034405;28;20037;-70
2023/05/08 01:04:11;;;;;;;8.15;4.47;;;;;;;;;;5031610;28;20022;-70
2023/05/08 01:06:36;;;;;;;8.65;5.15;;;;;;;;;;5032080;28;20032;-70
2023/05/08 01:09:02;;;;;;;9.68;5.07;;;;;;;;;;5031980;28;20028;-71
2023/05/08 01:11:30;;;;;;;8.52;5.07;;;;;;;;;;5034952;28;20030;-69
2023/05/08 01:14:12;;;;;;;9.88;4.55;;;;;;;;;;5031484;28;20026;-70
2023/05/08 01:16:40;;;;;;;9.15;4.57;;;;;;;;;;5026811;28;20018;-69
2023/05/08 01:19:08;;;;;;;10.02;4.95;;;;;;;;;;5035540;28;20628;-70
2023/05/08 01:21:38;;;;;;;7.20;4.53;;;;;;;;;;5030874;28;20036;-70
2023/05/08 01:24:22;;;;;;;7.05;4.88;;;;;;;;;;5030812;28;20021;-70
2023/05/08 01:26:53;;;;;;;12.27;5.13;;;;;;;;;;5031673;28;20395;-71
2023/05/08 01:29:18;;;;;;;13.40;5.35;;;;;;;;;;5026970;28;20109;-70
2023/05/08 01:31:55;;;;;;;7.73;4.93;;;;;;;;;;5030545;28;20104;-70
2023/05/08 01:34:23;;;;;;;8.80;6.22;;;;;;;;;;5030240;28;20299;-70
2023/05/08 01:36:51;;;;;;;8.38;4.90;;;;;;;;;;5029333;28;20363;-70
2023/05/08 01:39:19;;;;;;;9.13;5.50;;;;;;;;;;5031519;28;20017;-70
2023/05/08 01:41:59;;;;;;;10.90;5.43;;;;;;;;;;5032167;28;20025;-70
2023/05/08 01:44:27;;;;;;;10.45;5.57;;;;;;;;;;5024647;28;20402;-70
2023/05/08 01:46:53;;;;;;;7.65;4.97;;;;;;;;;;5032497;28;20026;-70
2023/05/08 01:49:26;;;;;;;11.17;5.30;;;;;;;;;;5027657;28;20104;-69
2023/05/08 01:52:12;;;;;;;7.80;5.43;;;;;;;;;;5031830;28;20282;-71
2023/05/08 01:54:47;;;;;;;12.27;5.75;;;;;;;;;;5032546;28;20441;-71
2023/05/08 01:57:13;;;;;;;8.15;5.50;;;;;;;;;;5028746;28;20022;-70
2023/05/08 01:59:40;;;;;;;8.48;5.38;;;;;;;;;;5029275;28;20068;-70
2023/05/08 02:02:05;;;;;;;9.50;5.80;;;;;;;;;;5031362;28;20052;-71
2023/05/08 02:04:32;;;;;;;9.17;5.07;;;;;;;;;;5031140;28;20057;-70
2023/05/08 02:06:58;;;;;;;11.23;5.75;;;;;;;;;;5028685;28;20271;-70
2023/05/08 02:09:24;;;;;;;8.73;5.20;;;;;;;;;;5030173;28;20013;-70
2023/05/08 02:11:50;;;;;;;8.88;5.55;;;;;;;;;;5029805;28;20017;-69
2023/05/08 02:14:17;;;;;;;7.05;4.95;;;;;;;;;;5030326;28;20541;-70
2023/05/08 02:16:43;;;;;;;7.88;4.82;;;;;;;;;;5030066;28;20026;-72
2023/05/08 02:19:09;;;;;;;8.60;5.53;;;;;;;;;;5030382;28;20009;-71
2023/05/08 02:21:35;;;;;;;9.40;5.45;;;;;;;;;;5026635;28;20099;-70
2023/05/08 02:24:01;;;;;;;6.82;4.93;;;;;;;;;;5024096;28;20479;-72
2023/05/08 02:26:27;;;;;;;11.15;6.28;;;;;;;;;;5025433;28;20034;-71
2023/05/08 02:28:53;;;;;;;10.93;6.10;;;;;;;;;;5021503;28;20029;-70
2023/05/08 02:31:19;;;;;;;7.90;5.43;;;;;;;;;;5026170;28;20021;-70
2023/05/08 02:33:45;;;;;;;10.20;6.10;;;;;;;;;;5026840;28;20116;-70
2023/05/08 02:36:12;;;;;;;8.65;5.75;;;;;;;;;;5029834;28;20597;-70
2023/05/08 02:38:38;;;;;;;11.98;6.28;;;;;;;;;;5028569;28;20025;-70
2023/05/08 02:41:05;;;;;;;17.45;7.68;;;;;;;;;;5031890;28;20018;-70
2023/05/08 02:43:30;;;;;;;10.02;6.35;;;;;;;;;;5027946;28;20055;-70
2023/05/08 02:46:17;;;;;;;9.57;6.70;;;;;;;;;;5026231;28;20020;-70
2023/05/08 02:48:42;;;;;;;9.38;5.53;;;;;;;;;;5026210;28;20832;-70
2023/05/08 02:51:22;;;;;;;10.48;6.30;;;;;;;;;;5027092;28;20061;-70
2023/05/08 02:53:47;;;;;;;;;;;;;;;;;;5028587;28;20052;-71
2023/05/08 02:56:33;;;;;;;12.63;5.93;;;;;;;;;;5029799;28;20000;-70
2023/05/08 02:59:17;;;;;;;9.57;6.25;;;;;;;;;;5024392;28;20045;-70
2023/05/08 03:01:45;;;;;;;9.38;5.68;;;;;;;;;;5030459;28;20021;-70
2023/05/08 03:04:15;;;;;;;12.57;6.18;;;;;;;;;;5030294;28;20026;-70
2023/05/08 03:06:43;;;;;;;10.57;6.70;;;;;;;;;;5029317;28;20495;-70
2023/05/08 03:09:12;;;;;;;10.27;6.30;;;;;;;;;;5030188;28;20749;-69
2023/05/08 03:11:39;;;;;;;10.13;6.13;;;;;;;;;;5027553;28;20018;-70
2023/05/08 03:14:08;;;;;;;10.45;6.55;;;;;;;;;;5027031;28;20022;-69
2023/05/08 03:16:33;;;;;;;9.82;6.47;;;;;;;;;;5026668;28;20060;-69
2023/05/08 03:19:00;;;;;;;12.82;7.00;;;;;;;;;;5022954;28;20042;-70
2023/05/08 03:21:27;;;;;;;10.25;6.90;;;;;;;;;;5024270;28;20041;-69
2023/05/08 03:23:53;;;;;;;12.93;7.05;;;;;;;;;;5027406;28;20514;-71
2023/05/08 03:26:18;;;;;;;12.90;6.57;;;;;;;;;;5030193;28;20029;-70
2023/05/08 03:28:48;;;;;;;12.38;7.30;;;;;;;;;;5029714;28;20056;-69
2023/05/08 03:31:15;;;;;;;12.57;7.43;;;;;;;;;;5028547;28;20156;-70
2023/05/08 03:33:41;;;;;;;13.73;6.75;;;;;;;;;;5022757;28;20033;-69
2023/05/08 03:36:06;;;;;;;14.68;7.70;;;;;;;;;;5031404;28;20017;-69
2023/05/08 03:38:33;;;;;;;11.98;7.22;;;;;;;;;;5027402;28;20018;-70
2023/05/08 03:40:58;;;;;;;12.90;8.38;;;;;;;;;;5030228;28;20470;-69
2023/05/08 03:43:23;;;;;;;11.85;7.72;;;;;;;;;;5027312;28;20036;-71
2023/05/08 03:45:49;;;;;;;12.85;7.32;;;;;;;;;;5029952;28;20013;-69
2023/05/08 03:48:15;;;;;;;13.60;6.75;;;;;;;;;;5033144;28;20502;-70
2023/05/08 03:50:40;;;;;;;15.40;8.05;;;;;;;;;;5028855;28;20390;-70
2023/05/08 03:53:05;;;;;;;13.38;8.50;;;;;;;;;;5026669;28;21239;-69
2023/05/08 03:55:31;;;;;;;13.60;7.83;;;;;;;;;;5027654;28;20582;-69
2023/05/08 03:57:56;;;;;;;13.48;8.32;;;;;;;;;;5027520;28;20758;-70
2023/05/08 04:00:27;;;;;;;15.25;7.97;;;;;;;;;;5033527;28;20041;-70
2023/05/08 04:02:56;;;;;;;19.55;8.70;;;;;;;;;;5031259;28;20022;-69
2023/05/08 04:05:24;;;;;;;15.93;10.07;;;;;;;;;;5033599;28;20395;-70
2023/05/08 04:07:52;;;;;;;15.05;8.75;;;;;;;;;;5028868;28;20014;-69
2023/05/08 04:10:22;;;;;;;16.15;10.30;;;;;;;;;;5029601;28;20654;-70
2023/05/08 04:12:56;;;;;;;15.57;9.48;;;;;;;;;;5030941;28;20013;-69
2023/05/08 04:15:26;;;;;;;16.63;9.18;;;;;;;;;;5028405;28;20037;-72
2023/05/08 04:18:05;;;;;;;18.30;9.70;;;;;;;;;;5034527;28;20013;-70
2023/05/08 04:20:30;;;;;;;18.05;10.25;;;;;;;;;;5032655;28;20112;-71
2023/05/08 04:22:56;;;;;;;16.88;9.95;;;;;;;;;;5030054;28;20701;-69
2023/05/08 04:25:21;;;;;;;17.38;10.30;;;;;;;;;;5031852;28;20032;-69
2023/05/08 04:27:47;;;;;;;15.68;9.95;;;;;;;;;;5035001;28;20386;-70
2023/05/08 04:30:13;;;;;;;20.27;9.70;;;;;;;;;;5031840;28;20096;-71
2023/05/08 04:32:38;;;;;;;17.23;10.25;;;;;;;;;;5033970;28;20368;-70
2023/05/08 04:35:04;;;;;;;16.65;10.05;;;;;;;;;;5034070;28;20355;-69
2023/05/08 04:37:32;;;;;;;14.02;9.38;;;;;;;;;;5032481;28;20021;-71
2023/05/08 04:39:58;;;;;;;17.73;10.70;;;;;;;;;;5030450;28;20090;-70
2023/05/08 04:42:25;;;;;;;16.33;10.20;;;;;;;;;;5032705;28;20534;-71
2023/05/08 04:44:50;;;;;;;17.63;10.68;;;;;;;;;;5032600;28;20107;-70
2023/05/08 04:47:15;;;;;;;18.83;9.80;;;;;;;;;;5028633;28;20067;-70
2023/05/08 04:49:40;;;;;;;16.27;7.80;;;;;;;;;;5030714;28;20025;-70
2023/05/08 04:52:06;;;;;;;15.73;9.05;;;;;;;;;;5030964;28;20289;-70
2023/05/08 04:54:31;;;;;;;14.85;9.18;;;;;;;;;;5024762;28;20025;-70
2023/05/08 04:56:57;;;;;;;18.25;8.55;;;;;;;;;;5024458;28;20092;-69
2023/05/08 04:59:23;;;;;;;15.35;9.35;;;;;;;;;;5029143;28;20136;-69
2023/05/08 05:01:49;;;;;;;17.90;10.18;;;;;;;;;;5032409;28;20034;-69
2023/05/08 05:04:14;;;;;;;16.98;10.90;;;;;;;;;;5027488;28;20029;-70
2023/05/08 05:06:39;;;;;;;19.80;10.20;;;;;;;;;;5030780;28;20035;-70
2023/05/08 05:09:05;;;;;;;18.17;10.38;;;;;;;;;;5034074;28;20783;-70
2023/05/08 05:11:30;;;;;;;25.55;10.82;;;;;;;;;;5033042;28;20383;-69
2023/05/08 05:13:55;;;;;;;18.77;10.33;;;;;;;;;;5028358;28;20032;-69
2023/05/08 05:16:20;;;;;;;17.60;10.13;;;;;;;;;;5031054;28;20268;-71
2023/05/08 05:18:46;;;;;;;21.03;10.93;;;;;;;;;;5033585;28;20083;-71
2023/05/08 05:21:11;;;;;;;17.88;9.68;;;;;;;;;;5026102;28;20286;-70
2023/05/08 05:23:37;;;;;;;22.23;10.77;;;;;;;;;;5026736;28;20108;-69
2023/05/08 05:26:02;;;;;;;15.20;10.82;;;;;;;;;;5028187;28;20262;-69
2023/05/08 05:28:27;;;;;;;17.25;10.00;;;;;;;;;;5032711;28;20432;-71
2023/05/08 05:30:52;;;;;;;23.23;11.67;;;;;;;;;;5036981;28;20028;-70
2023/05/08 05:33:17;;;;;;;27.38;10.93;;;;;;;;;;5025924;28;20288;-69
2023/05/08 05:35:43;;;;;;;20.40;10.20;;;;;;;;;;5027377;28;20105;-70
2023/05/08 05:38:08;;;;;;;21.08;10.63;;;;;;;;;;5031540;28;20260;-69
2023/05/08 05:40:33;;;;;;;15.82;9.27;;;;;;;;;;5031848;28;20025;-71
2023/05/08 05:42:58;;;;;;;19.53;10.23;;;;;;;;;;5029153;28;20419;-69
2023/05/08 05:45:23;;;;;;;18.23;11.03;;;;;;;;;;5028070;28;20287;-71
2023/05/08 05:47:49;;;;;;;14.55;8.65;;;;;;;;;;5029579;28;20270;-70
2023/05/08 05:50:17;;;;;;;18.08;10.70;;;;;;;;;;5029554;28;20024;-70
2023/05/08 05:52:43;;;;;;;15.13;9.00;;;;;;;;;;5030079;28;20060;-72
2023/05/08 05:55:08;;;;;;;18.60;9.85;;;;;;;;;;5024075;28;20052;-70
2023/05/08 05:57:33;;;;;;;20.25;10.60;;;;;;;;;;5022335;28;20030;-70
2023/05/08 05:59:58;;;;;;;10.83;6.87;;;;;;;;;;5031552;28;20024;-72
2023/05/08 06:02:24;;;;;;;17.67;10.10;;;;;;;;;;5028830;28;20692;-69
2023/05/08 06:04:50;;;;;;;18.75;10.77;;;;;;;;;;5027765;28;20021;-69
2023/05/08 06:07:15;;;;;;;18.02;10.55;;;;;;;;;;5029009;28;20470;-69
2023/05/08 06:09:40;;;;;;;15.20;9.35;;;;;;;;;;5026684;28;20036;-70
2023/05/08 06:12:07;;;;;;;18.60;9.37;;;;;;;;;;5029439;28;20033;-70
2023/05/08 06:14:32;;;;;;;15.88;10.23;;;;;;;;;;5030911;28;20276;-69
2023/05/08 06:16:57;;;;;;;14.60;9.60;;;;;;;;;;5026032;28;20020;-70
2023/05/08 06:19:23;;;;;;;15.30;9.63;;;;;;;;;;5026812;28;20676;-70
2023/05/08 06:21:49;;;;;;;16.88;10.10;;;;;;;;;;5032691;28;20266;-69
2023/05/08 06:24:14;;;;;;;18.80;10.20;;;;;;;;;;5031283;28;20033;-69
2023/05/08 06:26:40;;;;;;;14.40;9.20;;;;;;;;;;5027425;28;20017;-70
2023/05/08 06:29:05;;;;;;;16.17;8.65;;;;;;;;;;5028501;28;20033;-70
2023/05/08 06:31:30;;;;;;;14.27;9.27;;;;;;;;;;5028221;28;20032;-70
2023/05/08 06:33:55;;;;;;;16.70;9.77;;;;;;;;;;5033087;28;20626;-70
2023/05/08 06:36:21;;;;;;;16.00;9.03;;;;;;;;;;5026702;28;20276;-71
2023/05/08 06:38:46;;;;;;;20.57;10.27;;;;;;;;;;5025299;28;20386;-70
2023/05/08 06:41:11;;;;;;;13.20;8.98;;;;;;;;;;5021622;28;20300;-70
2023/05/08 06:43:36;;;;;;;18.20;11.20;;;;;;;;;;5024766;28;20034;-70
2023/05/08 06:46:01;;;;;;;15.60;10.17;;;;;;;;;;5027747;28;20264;-70
2023/05/08 06:48:27;;;;;;;24.67;11.70;;;;;;;;;;5027379;28;20040;-70
2023/05/08 06:50:53;;;;;;;14.40;9.38;;;;;;;;;;5021626;28;20017;-69
2023/05/08 06:53:18;;;;;;;11.88;7.93;;;;;;;;;;5030671;28;20382;-69
2023/05/08 06:55:43;;;;;;;18.57;9.97;;;;;;;;;;5027205;28;20077;-69
2023/05/08 06:58:08;;;;;;;13.57;8.55;;;;;;;;;;5025064;28;20057;-70
2023/05/08 07:00:33;;;;;;;10.97;6.63;;;;;;;;;;5030787;28;20021;-70
2023/05/08 07:02:59;;;;;;;12.97;8.73;;;;;;;;;;5026975;28;20265;-69
2023/05/08 07:05:24;;;;;;;14.05;8.85;;;;;;;;;;5025655;28;20339;-70
2023/05/08 07:07:49;;;;;;;13.32;8.77;;;;;;;;;;5028798;28;20024;-69
2023/05/08 07:10:15;;;;;;;17.13;9.93;;;;;;;;;;5025513;28;20021;-72
2023/05/08 07:12:40;;;;;;;14.43;8.35;;;;;;;;;;5023041;28;20029;-70
2023/05/08 07:15:06;;;;;;;14.37;9.93;;;;;;;;;;5025804;28;20033;-69
2023/05/08 07:17:31;;;;;;;11.45;7.55;;;;;;;;;;5022751;28;20260;-69
2023/05/08 07:19:56;;;;;;;14.75;8.25;;;;;;;;;;5027967;28;20466;-69
2023/05/08 07:22:21;;;;;;;11.87;7.50;;;;;;;;;;5025731;28;20017;-70
2023/05/08 07:24:47;;;;;;;17.37;9.00;;;;;;;;;;5024851;28;20295;-71
2023/05/08 07:27:13;;;;;;;16.23;8.40;;;;;;;;;;5030738;28;20360;-71
2023/05/08 07:29:40;;;;;;;14.18;9.48;;;;;;;;;;5020699;28;20112;-69
2023/05/08 07:32:08;;;;;;;16.50;10.57;;;;;;;;;;5028003;28;20025;-69
2023/05/08 07:34:33;;;;;;;15.35;9.18;;;;;;;;;;5020894;28;20037;-69
2023/05/08 07:36:59;;;;;;;13.07;8.55;;;;;;;;;;5029490;28;20009;-70
2023/05/08 07:39:24;;;;;;;15.35;7.70;;;;;;;;;;5026976;28;20036;-70
2023/05/08 07:41:49;;;;;;;14.40;8.40;;;;;;;;;;5021048;28;20029;-69
2023/05/08 07:44:14;;;;;;;16.93;9.17;;;;;;;;;;5028773;28;20876;-72
2023/05/08 07:46:40;;;;;;;11.85;7.32;;;;;;;;;;5026438;28;20276;-69
2023/05/08 07:49:05;;;;;;;12.70;8.75;;;;;;;;;;5032946;28;20029;-69
2023/05/08 07:51:31;;;;;;;15.32;8.20;;;;;;;;;;5023270;28;20033;-70
2023/05/08 07:53:56;;;;;;;11.88;7.32;;;;;;;;;;5027511;28;20037;-69
2023/05/08 07:56:21;;;;;;;13.97;8.47;;;;;;;;;;5029720;28;20449;-71
2023/05/08 07:58:47;;;;;;;12.10;7.40;;;;;;;;;;5029988;28;20279;-70
2023/05/08 08:01:12;;;;;;;9.65;6.50;;;;;;;;;;5032544;28;20087;-71
2023/05/08 08:03:37;;;;;;;10.30;4.32;;;;;;;;;;5031113;28;20049;-70
2023/05/08 08:06:02;;;;;;;16.17;7.80;;;;;;;;;;5029316;28;20022;-72
2023/05/08 08:08:28;;;;;;;10.88;7.40;;;;;;;;;;5027058;28;20025;-70
2023/05/08 08:10:53;;;;;;;20.80;8.07;;;;;;;;;;5030094;28;20628;-69
2023/05/08 08:13:18;;;;;;;11.20;7.07;;;;;;;;;;5027265;28;20280;-70
2023/05/08 08:15:43;;;;;;;14.88;8.15;;;;;;;;;;5025577;28;20425;-69
2023/05/08 08:18:09;;;;;;;11.03;7.20;;;;;;;;;;5032450;28;20096;-71
2023/05/08 08:20:34;;;;;;;12.43;8.10;;;;;;;;;;5026812;28;20276;-69
2023/05/08 08:22:59;;;;;;;12.87;8.43;;;;;;;;;;5030469;28;20088;-70
2023/05/08 08:25:24;;;;;;;16.75;7.93;;;;;;;;;;5029613;28;20267;-69
2023/05/08 08:27:50;;;;;;;8.80;5.93;;;;;;;;;;5030535;28;20525;-70
2023/05/08 08:30:15;;;;;;;10.48;6.40;;;;;;;;;;5025230;28;20691;-69
2023/05/08 08:32:40;;;;;;;5.57;3.85;;;;;;;;;;5029523;28;20503;-69
2023/05/08 08:35:05;;;;;;;11.48;7.65;;;;;;;;;;5025166;28;20029;-71
2023/05/08 08:37:31;;;;;;;13.20;7.25;;;;;;;;;;5019489;28;20013;-69
2023/05/08 08:39:56;;;;;;;10.77;7.03;;;;;;;;;;5023610;28;20020;-70
2023/05/08 08:42:22;;;;;;;11.30;7.77;;;;;;;;;;5022564;28;20021;-70
2023/05/08 08:44:47;;;;;;;5.97;2.45;;;;;;;;;;5026979;28;20017;-69
2023/05/08 08:47:15;;;;;;;12.35;6.90;;;;;;;;;;5031966;28;20441;-69
2023/05/08 08:49:42;;;;;;;8.50;5.53;;;;;;;;;;5030222;28;20409;-70
2023/05/08 08:52:12;;;;;;;10.15;6.45;;;;;;;;;;5024279;28;20021;-69
2023/05/08 08:54:40;;;;;;;;;;;;;;;;;;5024227;28;20053;-70
2023/05/08 08:57:06;;;;;;;10.77;6.75;;;;;;;;;;5028593;28;20286;-69
2023/05/08 08:59:32;;;;;;;12.10;7.35;;;;;;;;;;5029818;28;20025;-69
2023/05/08 09:01:58;;;;;;;10.95;6.85;;;;;;;;;;5030340;28;20017;-69
2023/05/08 09:04:26;;;;;;;8.98;5.88;;;;;;;;;;5029526;28;20056;-69
2023/05/08 09:06:51;;;;;;;5.75;3.50;;;;;;;;;;5029338;28;20026;-69
2023/05/08 09:09:17;;;;;;;12.07;5.57;;;;;;;;;;5026345;28;20028;-69
2023/05/08 09:11:42;;;;;;;13.30;6.57;;;;;;;;;;5029487;28;20022;-69
2023/05/08 09:14:08;;;;;;;10.13;6.50;;;;;;;;;;5029391;28;20474;-69
2023/05/08 09:16:34;;;;;;;11.15;5.63;;;;;;;;;;5031371;28;20017;-69
2023/05/08 09:18:59;;;;;;;8.85;6.32;;;;;;;;;;5030392;28;20035;-69
2023/05/08 09:21:25;;;;;;;14.10;7.82;;;;;;;;;;5030600;28;20441;-69
2023/05/08 09:23:55;;;;;;;24.98;8.88;;;;;;;;;;5024266;28;20021;-69
2023/05/08 09:26:31;;;;;;;12.18;7.03;;;;;;;;;;5029396;28;20061;-69
2023/05/08 09:29:16;;;;;;;11.75;6.97;;;;;;;;;;5025770;28;20044;-69
2023/05/08 09:31:43;;;;;;;16.08;8.30;;;;;;;;;;5028591;28;20029;-70
2023/05/08 09:34:09;;;;;;;10.68;7.78;;;;;;;;;;5028746;28;20021;-71
2023/05/08 09:36:34;;;;;;;13.65;7.85;;;;;;;;;;5024625;28;20036;-69
2023/05/08 09:39:00;;;;;;;12.07;8.18;;;;;;;;;;5030246;28;20017;-70
2023/05/08 09:41:25;;;;;;;13.80;8.32;;;;;;;;;;5026902;28;20080;-69
2023/05/08 09:44:03;;;;;;;13.20;7.88;;;;;;;;;;5026518;28;20035;-69
2023/05/08 09:46:29;;;;;;;14.95;7.32;;;;;;;;;;5029490;28;20022;-69
2023/05/08 09:48:55;;;;;;;21.42;8.60;;;;;;;;;;5020615;28;22248;-70
2023/05/08 09:51:21;;;;;;;10.27;8.15;;;;;;;;;;5024756;28;20025;-70
2023/05/08 09:53:48;;;;;;;11.50;8.30;;;;;;;;;;5026103;28;20022;-71
2023/05/08 09:56:13;;;;;;;11.05;7.03;;;;;;;;;;5032673;28;20075;-69
2023/05/08 09:58:39;;;;;;;15.23;7.77;;;;;;;;;;5028813;28;20038;-70
2023/05/08 10:01:05;;;;;;;9.95;6.75;;;;;;;;;;5035690;28;20352;-70
2023/05/08 10:03:46;;;;;;;13.93;7.60;;;;;;;;;;5030481;28;20022;-69
2023/05/08 10:06:13;;;;;;;13.82;7.53;;;;;;;;;;5029715;28;20009;-69
2023/05/08 10:08:38;;;;;;;10.38;7.40;;;;;;;;;;5024286;28;20025;-69
2023/05/08 10:11:16;;;;;;;13.23;7.90;;;;;;;;;;5018816;28;20064;-71
2023/05/08 10:13:45;;;;;;;11.32;7.43;;;;;;;;;;5020324;28;20279;-69
2023/05/08 10:16:14;;;;;;;14.63;7.45;;;;;;;;;;5023843;28;20024;-69
2023/05/08 10:18:41;;;;;;;13.10;7.97;;;;;;;;;;5023324;28;20025;-69
2023/05/08 10:21:07;;;;;;;11.63;7.63;;;;;;;;;;5020016;28;20025;-69
2023/05/08 10:23:33;;;;;;;11.77;7.32;;;;;;;;;;5016699;28;20115;-70
2023/05/08 10:26:02;;;;;;;12.80;7.05;;;;;;;;;;5019139;28;20089;-69
2023/05/08 10:28:30;;;;;;;10.40;6.32;;;;;;;;;;5018700;28;20778;-71
2023/05/08 10:30:57;;;;;;;9.95;5.97;;;;;;;;;;5018860;28;20506;-70
2023/05/08 10:33:24;;;;;;;10.05;6.72;;;;;;;;;;5022319;28;20121;-70
2023/05/08 10:35:50;;;;;;;12.07;7.28;;;;;;;;;;5028018;28;20021;-69
2023/05/08 10:38:15;;;;;;;13.45;7.60;;;;;;;;;;5031269;28;20014;-71
2023/05/08 10:40:41;;;;;;;15.13;8.02;;;;;;;;;;5024349;28;20021;-69
2023/05/08 10:43:07;;;;;;;17.98;8.32;;;;;;;;;;5028007;28;20204;-69
2023/05/08 10:45:32;;;;;;;15.15;8.82;;;;;;;;;;5029395;28;20374;-69
2023/05/08 10:47:58;;;;;;;20.92;8.95;;;;;;;;;;5024693;28;20017;-71
2023/05/08 10:50:23;;;;;;;13.40;8.17;;;;;;;;;;5029362;28;20031;-69
2023/05/08 10:53:06;;;;;;;14.13;9.10;;;;;;;;;;5028971;28;20280;-71
2023/05/08 10:55:35;;;;;;;11.32;7.20;;;;;;;;;;5029283;28;20034;-69
2023/05/08 10:58:11;;;;;;;12.30;7.55;;;;;;;;;;5023245;28;20017;-70
2023/05/08 11:00:51;;;;;;;13.48;8.13;;;;;;;;;;5026868;28;20090;-69
2023/05/08 11:03:17;;;;;;;11.82;8.55;;;;;;;;;;5027055;28;20545;-70
2023/05/08 11:05:46;;;;;;;11.50;7.85;;;;;;;;;;5026800;28;20025;-70
2023/05/08 11:08:16;;;;;;;12.57;7.43;;;;;;;;;;5025881;28;20482;-69
2023/05/08 11:10:42;;;;;;;12.13;8.10;;;;;;;;;;5020606;28;20029;-71
2023/05/08 11:13:08;;;;;;;14.40;7.75;;;;;;;;;;5025468;28;20033;-70
2023/05/08 11:15:37;;;;;;;9.85;6.57;;;;;;;;;;5022797;28;20036;-70
2023/05/08 11:18:03;;;;;;;10.90;6.35;;;;;;;;;;5022988;28;20112;-70
2023/05/08 11:20:37;;;;;;;11.15;5.78;;;;;;;;;;5024936;28;20108;-69
2023/05/08 11:23:20;;;;;;;14.38;8.30;;;;;;;;;;5014252;28;20088;-69
2023/05/08 11:25:45;;;;;;;7.03;3.85;;;;;;;;;;5025821;28;20029;-69
2023/05/08 11:28:11;;;;;;;11.57;7.22;;;;;;;;;;5021432;28;20092;-70
2023/05/08 11:30:37;;;;;;;15.93;8.70;;;;;;;;;;5026237;28;20105;-69
2023/05/08 11:33:12;;;;;;;10.55;5.68;;;;;;;;;;5021462;28;20432;-70
2023/05/08 11:35:50;;;;;;;13.82;9.15;;;;;;;;;;5021297;28;20025;-69
2023/05/08 11:38:17;;;;;;;13.32;8.52;;;;;;;;;;5028045;28;20021;-70
2023/05/08 11:40:48;;;;;;;13.07;7.40;;;;;;;;;;5020553;28;20439;-69
2023/05/08 11:43:40;;;;;;;16.10;9.27;;;;;;;;;;5024479;28;20096;-69
2023/05/08 11:46:15;;;;;;;18.35;9.60;;;;;;;;;;5003278;28;20417;-69
2023/05/08 11:48:40;;;;;;;14.20;8.05;;;;;;;;;;5028595;28;20037;-69
2023/05/08 11:51:06;;;;;;;15.65;9.50;;;;;;;;;;5025050;28;20473;-69
2023/05/08 11:53:31;;;;;;;15.73;10.32;;;;;;;;;;5023875;28;20430;-69
2023/05/08 11:55:57;;;;;;;14.32;9.07;;;;;;;;;;5026523;28;20034;-69
2023/05/08 11:58:22;;;;;;;15.82;9.52;;;;;;;;;;5022763;28;20018;-70
2023/05/08 12:00:48;;;;;;;16.88;10.27;;;;;;;;;;5022742;28;20029;-69
2023/05/08 12:03:14;;;;;;;14.35;7.72;;;;;;;;;;5024843;28;20022;-69
2023/05/08 12:05:39;;;;;;;23.10;11.30;;;;;;;;;;5026810;28;20048;-69
2023/05/08 12:08:05;;;;;;;21.95;12.18;;;;;;;;;;5023176;28;20029;-70
2023/05/08 12:10:30;;;;;;;17.15;9.60;;;;;;;;;;5028255;28;20682;-69
2023/05/08 12:12:55;;;;;;;16.98;9.60;;;;;;;;;;5034208;28;20746;-69
2023/05/08 12:15:20;;;;;;;17.83;10.03;;;;;;;;;;5026486;28;20021;-71
2023/05/08 12:17:46;;;;;;;13.37;9.13;;;;;;;;;;5024577;28;20721;-69
2023/05/08 12:20:11;;;;;;;10.57;6.00;;;;;;;;;;5032589;28;20290;-71
2023/05/08 12:22:37;;;;;;;15.15;8.93;;;;;;;;;;5026195;28;20025;-70
2023/05/08 12:25:03;;;;;;;16.05;9.32;;;;;;;;;;5027792;28;20032;-69
2023/05/08 12:27:29;;;;;;;12.27;7.38;;;;;;;;;;5018281;28;20060;-68
2023/05/08 12:29:55;;;;;;;14.48;7.32;;;;;;;;;;5023970;28;20490;-69
2023/05/08 12:32:21;;;;;;;8.18;5.43;;;;;;;;;;5026797;28;20029;-73
2023/05/08 12:34:46;;;;;;;12.80;7.43;;;;;;;;;;5021256;28;20057;-70
2023/05/08 12:37:21;;;;;;;11.07;6.97;;;;;;;;;;5031387;28;20268;-69
2023/05/08 12:39:46;;;;;;;11.13;6.13;;;;;;;;;;5023083;28;20017;-69
2023/05/08 12:42:12;;;;;;;10.90;6.53;;;;;;;;;;5032981;28;20028;-70
2023/05/08 12:44:37;;;;;;;12.87;7.97;;;;;;;;;;5024768;28;20861;-70
2023/05/08 12:47:03;;;;;;;10.63;7.10;;;;;;;;;;5025277;28;20279;-69
2023/05/08 12:49:29;;;;;;;15.27;8.32;;;;;;;;;;5024291;28;20300;-71
2023/05/08 12:52:05;;;;;;;11.38;7.50;;;;;;;;;;5021185;28;20094;-70
2023/05/08 12:54:44;;;;;;;13.32;8.60;;;;;;;;;;5032134;28;20230;-69
2023/05/08 12:57:10;;;;;;;12.40;8.38;;;;;;;;;;5017132;28;20052;-69
2023/05/08 12:59:35;;;;;;;12.43;7.90;;;;;;;;;;5023207;28;20087;-70
2023/05/08 13:02:01;;;;;;;12.87;7.97;;;;;;;;;;5028980;28;20475;-70
2023/05/08 13:04:26;;;;;;;12.63;8.37;;;;;;;;;;5029324;28;20068;-70
2023/05/08 13:06:57;;;;;;;15.57;8.80;;;;;;;;;;5027381;28;20948;-69
2023/05/08 13:09:22;;;;;;;13.55;9.27;;;;;;;;;;5034710;28;20452;-70
2023/05/08 13:11:48;;;;;;;15.03;8.73;;;;;;;;;;5026776;28;20117;-69
2023/05/08 13:14:13;;;;;;;13.65;9.50;;;;;;;;;;5021279;28;20280;-70
2023/05/08 13:16:46;;;;;;;14.45;10.15;;;;;;;;;;5030852;28;20052;-70
2023/05/08 13:19:11;;;;;;;17.98;9.88;;;;;;;;;;5025994;28;20108;-70
2023/05/08 13:21:37;;;;;;;13.32;8.70;;;;;;;;;;5017942;28;20029;-70
2023/05/08 13:24:02;;;;;;;16.38;9.15;;;;;;;;;;5014284;28;20014;-70
2023/05/08 13:26:27;;;;;;;14.38;7.88;;;;;;;;;;5014027;28;20069;-70
2023/05/08 13:28:53;;;;;;;15.20;9.03;;;;;;;;;;5015534;28;20490;-70
2023/05/08 13:31:18;;;;;;;15.67;9.30;;;;;;;;;;5008677;28;20017;-70
2023/05/08 13:33:43;;;;;;;13.20;9.30;;;;;;;;;;5008566;28;20662;-70
2023/05/08 13:36:08;;;;;;;11.83;8.33;;;;;;;;;;5011951;28;20023;-70
2023/05/08 13:38:33;;;;;;;14.82;9.15;;;;;;;;;;5012069;28;20335;-70
2023/05/08 13:40:59;;;;;;;12.60;8.37;;;;;;;;;;5010972;28;20006;-70
2023/05/08 13:43:24;;;;;;;22.77;9.85;;;;;;;;;;5015577;28;20304;-70
2023/05/08 13:45:49;;;;;;;17.65;7.55;;;;;;;;;;5023266;28;20045;-70
2023/05/08 13:48:14;;;;;;;15.93;8.25;;;;;;;;;;5021980;28;20422;-73
2023/05/08 13:50:39;;;;;;;12.97;7.60;;;;;;;;;;5016259;28;20025;-70
2023/05/08 13:53:05;;;;;;;11.80;8.80;;;;;;;;;;5021861;28;20279;-70
2023/05/08 13:55:30;;;;;;;14.37;8.73;;;;;;;;;;5017114;28;20026;-71
2023/05/08 13:57:56;;;;;;;12.75;8.02;;;;;;;;;;5022557;28;20264;-71
2023/05/08 14:00:21;;;;;;;11.40;7.85;;;;;;;;;;5027752;28;20052;-71
2023/05/08 14:02:46;;;;;;;12.55;7.72;;;;;;;;;;5020962;28;20045;-71
2023/05/08 14:05:11;;;;;;;13.60;8.63;;;;;;;;;;5024939;28;20030;-72
2023/05/08 14:07:37;;;;;;;14.77;8.02;;;;;;;;;;5022272;28;20263;-72
2023/05/08 14:10:02;;;;;;;15.52;8.10;;;;;;;;;;5024128;28;20398;-72
2023/05/08 14:12:27;;;;;;;14.57;8.48;;;;;;;;;;5024132;28;20080;-72
2023/05/08 14:14:52;;;;;;;11.82;6.28;;;;;;;;;;5017786;28;20025;-71
2023/05/08 14:17:18;;;;;;;11.67;7.57;;;;;;;;;;5023042;28;20029;-71
2023/05/08 14:19:44;;;;;;;10.60;7.05;;;;;;;;;;5020959;28;20276;-72
2023/05/08 14:22:10;;;;;;;15.23;8.95;;;;;;;;;;5027208;28;20025;-72
2023/05/08 14:24:35;;;;;;;10.60;7.82;;;;;;;;;;5023394;28;20483;-72
2023/05/08 14:27:04;;;;;;;12.77;7.90;;;;;;;;;;5026714;28;20070;-71
2023/05/08 14:29:29;;;;;;;12.45;7.60;;;;;;;;;;5021844;28;20479;-71